• Join FlightAware (Why Join?)
  • Login
  • US Flag 
03:30AM EDT


 

Airport Tracker/Info


-or-


 

Live Flight TrackerFlight Track Log ✈ AWE3287 ✈ 17-Apr-2013 ✈ KPHL - KORF

Flight Track Log - Related Links

Times and Time Zones

All times are in EDT time to prevent confusion due to time zone crossing. See the AWE3287 flight status page for this flight to view local times or setup timezone preferences in your user account.

Time Position Orientation Groundspeed Altitude Reporting Facility
EDT Latitude Longitude Course Direction KTS MPH feet Rate Location/Type
04:02PM 39.8667 -75.2833 185° South 159 183 800  Level Philadelphia TRACON
04:03PM 39.8458 -75.2917 197° South 183 211 1,700 1,560 Climbing FAA TRACON SMA TRACON (SMA)
04:03PM 39.8322 -75.3053 218° Southwest 225 259 2,100 2,220 Climbing FAA TRACON SMA TRACON (SMA)
04:03PM 39.8142 -75.3239 218° Southwest 218 251 3,200 2,520 Climbing FAA TRACON SMA TRACON (SMA)
04:04PM 39.7981 -75.3400 218° Southwest 237 273 3,700 2,100 Climbing FAA TRACON SMA TRACON (SMA)
04:04PM 39.7789 -75.3603 219° Southwest 254 292 4,600 3,420 Climbing FAA TRACON SMA TRACON (SMA)
04:04PM 39.7575 -75.3803 216° Southwest 267 307 6,000 3,360 Climbing FAA TRACON SMA TRACON (SMA)
04:05PM 39.5314 -75.3104 189° South  Level FlightAware Approximate
04:05PM 39.7375 -75.3939 208° Southwest 273 314 6,900  Level FAA TRACON SMA TRACON (SMA)
04:05PM 39.7147 -75.3983 189° South 281 323 7,700 3,000 Climbing FAA TRACON SMA TRACON (SMA)
04:05PM 39.6831 -75.3972 178° South 287 330 8,900 3,000 Climbing FAA TRACON SMA TRACON (SMA)
04:06PM 39.4463 -75.3333 180° South  Level FlightAware Approximate
04:06PM 39.6583 -75.3961 178° South 291 335 9,700  Level FAA TRACON SMA TRACON (SMA)
04:06PM 39.6272 -75.3947 178° South 298 343 10,600 1,920 Climbing FAA TRACON SMA TRACON (SMA)
04:06PM 39.5994 -75.3939 179° South 309 356 11,000 1,020 Climbing FAA TRACON SMA TRACON (SMA)
04:07PM 39.3594 -75.3416 185° South  Level FlightAware Approximate
04:07PM 39.5697 -75.3928 178° South 343 395 11,300  Level FAA TRACON SMA TRACON (SMA)
04:07PM 39.5400 -75.3919 179° South 352 405 12,000 2,400 Climbing FAA TRACON SMA TRACON (SMA)
04:07PM 39.5044 -75.3906 178° South 348 400 12,900 2,220 Climbing FAA TRACON SMA TRACON (SMA)
04:08PM 39.4719 -75.3892 178° South 352 405 13,500 1,920 Climbing FAA TRACON SMA TRACON (SMA)
04:08PM 39.4411 -75.3892 180° South 358 412 14,200 2,100 Climbing FAA TRACON SMA TRACON (SMA)
04:09PM 39.3697 -75.3864 178° South 371 427 15,600 1,980 Climbing FAA TRACON SMA TRACON (SMA)
04:09PM 39.3378 -75.3850 178° South 374 430 16,200 1,800 Climbing FAA TRACON SMA TRACON (SMA)
04:09PM 39.2978 -75.3842 179° South 381 438 16,800 1,320 Climbing FAA TRACON SMA TRACON (SMA)
04:10PM 39.2636 -75.3825 178° South 385 443 17,100 420 Climbing FAA TRACON SMA TRACON (SMA)
04:10PM 39.2464 -75.3817 178° South 390 449 17,100 -360 Level FAA TRACON SMA TRACON (SMA)
04:11PM 39.0842 -75.3992 185° South 407 468 16,600 -480 Descending Washington Center
04:12PM 38.9756 -75.4153 187° South 407 468 16,100 -300 Descending Washington Center
04:13PM 38.8653 -75.4344 188° South 407 468 16,100  Level Washington Center
04:14PM 38.7528 -75.4506 186° South 407 468 16,100  Level Washington Center
04:15PM 38.6506 -75.4667 187° South 412 474 16,100 -60 Level Washington Center
04:16PM 38.5172 -75.4856 186° South 407 468 16,000 -60 Descending Washington Center
04:17PM 38.4294 -75.4989 187° South 407 468 16,000  Level Washington Center
04:18PM 38.3211 -75.5256 191° South 407 468 16,000  Level Washington Center
04:19PM 38.2086 -75.5917 205° Southwest 402 463 16,000  Level Washington Center
04:20PM 38.1083 -75.6550 206° Southwest 402 463 16,000  Level Washington Center
04:21PM 38.0103 -75.7208 208° Southwest 402 463 16,000  Level Washington Center
04:22PM 37.9144 -75.7814 207° Southwest 397 457 16,000 -1,020 Level Washington Center
04:23PM 37.7975 -75.8547 206° Southwest 382 440 13,900 -1,860 Descending Washington Center
04:24PM 37.7244 -75.8989 206° Southwest 377 434 12,300 -1,980 Descending Washington Center
04:25PM 37.6825 -75.9225 204° Southwest 356 410 11,500 -1,920 Descending Washington Center
04:25PM 37.6367 -75.9486 204° Southwest 363 418 10,400 -1,380 Descending Washington Center
04:26PM 37.5867 -75.9639 194° South 347 399 10,000 -420 Descending Washington Center
04:26PM 37.5406 -75.9794 195° South 357 411 10,000  Level Washington Center
04:27PM 37.4781 -76.0028 197° South 350 403 10,000  Level Washington Center
04:27PM 37.4467 -76.0156 198° South 352 405 10,000  Level Washington Center
04:28PM 37.3694 -76.0386 193° South 367 422 10,000  Level Washington Center
04:28PM 37.3506 -76.0464 198° South 352 405 10,000  Level Washington Center
04:29PM 37.2858 -76.0669 194° South 329 379 10,000 -240 Level Washington Center
04:29PM 37.2608 -76.0747 194° South 352 405 9,800 -1,320 Descending Washington Center
04:30PM 37.2044 -76.0978 198° South 287 330 8,700 -1,680 Descending Washington Center
04:30PM 37.1833 -76.1028 191° South 322 371 8,100 -1,860 Descending Washington Center
04:31PM 37.1542 -76.1156 199° South 285 328 7,400 -1,740 Descending Washington Center
04:31PM 37.1083 -76.1283 193° South 299 344 6,400 -1,560 Descending Washington Center
04:32PM 37.0603 -76.1542 203° Southwest 265 305 5,400 -1,440 Descending Washington Center
04:32PM 37.0331 -76.1719 208° Southwest 285 328 5,000 -420 Descending Washington Center
04:33PM 36.9889 -76.2031 209° Southwest 263 303 5,000  Level Washington Center
04:33PM 36.9681 -76.2131 201° Southwest 273 314 5,000  Level Washington Center
04:34PM 36.9492 -76.2314 218° Southwest 264 304 5,000 -420 Level Washington Center
04:35PM 36.8947 -76.2853 218° Southwest 232 267 4,500 -540 Descending Washington Center